createdAt,value
2019-03-30T00:00:39.651Z,8.90
2019-03-30T00:03:09.344Z,9.57
2019-03-30T00:05:39.124Z,12.03
2019-03-30T00:08:08.794Z,9.93
2019-03-30T00:10:38.503Z,9.83
2019-03-30T00:13:08.183Z,10.17
2019-03-30T00:15:37.959Z,10.20
2019-03-30T00:18:07.630Z,8.63
2019-03-30T00:20:37.331Z,9.83
2019-03-30T00:23:07.022Z,11.37
2019-03-30T00:25:36.736Z,11.03
2019-03-30T00:28:06.486Z,13.43
2019-03-30T00:30:36.187Z,9.57
2019-03-30T00:33:05.870Z,10.53
2019-03-30T00:35:35.731Z,12.43
2019-03-30T00:38:05.620Z,10.50
2019-03-30T00:40:35.459Z,11.60
2019-03-30T00:43:05.211Z,12.27
2019-03-30T00:45:34.961Z,10.37
2019-03-30T00:48:04.764Z,10.00
2019-03-30T00:50:34.492Z,10.27
2019-03-30T00:53:04.248Z,11.57
2019-03-30T00:55:33.950Z,12.13
2019-03-30T00:58:03.703Z,12.17
2019-03-30T01:00:33.785Z,13.97
2019-03-30T01:03:03.478Z,11.03
2019-03-30T01:05:33.176Z,11.67
2019-03-30T01:08:02.950Z,12.60
2019-03-30T01:10:32.664Z,14.13
2019-03-30T01:13:02.383Z,12.90
2019-03-30T01:15:32.091Z,12.17
2019-03-30T01:18:01.771Z,13.13
2019-03-30T01:20:31.626Z,13.00
2019-03-30T01:23:01.385Z,11.90
2019-03-30T01:25:31.095Z,10.70
2019-03-30T01:28:00.881Z,13.83
2019-03-30T01:30:30.585Z,13.83
2019-03-30T01:33:00.579Z,13.73
2019-03-30T01:35:30.388Z,14.87
2019-03-30T01:38:00.062Z,12.30
2019-03-30T01:40:29.778Z,13.60
2019-03-30T01:42:59.461Z,15.47
2019-03-30T01:45:29.242Z,13.47
2019-03-30T01:47:58.919Z,14.90
2019-03-30T01:50:28.616Z,12.10
2019-03-30T01:52:58.407Z,14.43
2019-03-30T01:55:28.116Z,15.23
2019-03-30T01:57:58.225Z,13.70
2019-03-30T02:00:27.998Z,13.50
2019-03-30T02:02:57.682Z,15.33
2019-03-30T02:05:27.459Z,14.33
2019-03-30T02:07:57.135Z,15.80
2019-03-30T02:10:41.028Z,14.73
2019-03-30T02:13:10.767Z,14.03
2019-03-30T02:15:40.933Z,15.80
2019-03-30T02:18:13.147Z,15.73
2019-03-30T02:20:44.163Z,15.70
2019-03-30T02:23:14.119Z,16.70
2019-03-30T02:25:43.922Z,15.30
2019-03-30T02:28:13.606Z,16.50
2019-03-30T02:30:43.434Z,14.20
2019-03-30T02:33:13.115Z,14.70
2019-03-30T02:35:43.368Z,14.57
2019-03-30T02:38:13.052Z,17.30
2019-03-30T02:40:42.763Z,16.20
2019-03-30T02:43:12.452Z,17.53
2019-03-30T02:45:42.150Z,16.90
2019-03-30T02:48:11.923Z,17.43
2019-03-30T02:50:50.186Z,16.60
2019-03-30T02:53:13.214Z,16.40
2019-03-30T02:55:42.984Z,15.47
2019-03-30T02:58:12.736Z,19.47
2019-03-30T03:00:42.452Z,17.33
2019-03-30T03:03:12.218Z,18.77
2019-03-30T03:05:42.247Z,16.00
2019-03-30T03:08:12.008Z,16.43
2019-03-30T03:10:41.872Z,18.63
2019-03-30T03:13:11.548Z,15.63
2019-03-30T03:15:41.333Z,19.00
2019-03-30T03:18:11.155Z,18.20
2019-03-30T03:20:41.012Z,17.13
2019-03-30T03:23:10.696Z,16.53
2019-03-30T03:25:40.471Z,18.57
2019-03-30T03:28:10.151Z,16.00
2019-03-30T03:30:39.847Z,15.33
2019-03-30T03:33:09.681Z,16.17
2019-03-30T03:35:39.455Z,18.97
2019-03-30T03:38:09.159Z,17.17
2019-03-30T03:40:38.878Z,18.73
2019-03-30T03:43:08.630Z,18.57
2019-03-30T03:45:38.340Z,20.37
2019-03-30T03:48:08.113Z,18.83
2019-03-30T03:50:42.195Z,16.90
2019-03-30T03:53:14.065Z,16.77
2019-03-30T03:55:44.929Z,19.50
2019-03-30T03:58:16.831Z,18.37
2019-03-30T04:00:47.814Z,19.43
2019-03-30T04:03:19.069Z,19.83
2019-03-30T04:05:49.061Z,18.63
2019-03-30T04:08:19.121Z,18.43
2019-03-30T04:10:49.567Z,18.77
2019-03-30T04:13:20.878Z,16.93
2019-03-30T04:15:50.709Z,19.50
2019-03-30T04:18:20.568Z,18.90
2019-03-30T04:20:50.311Z,19.67
2019-03-30T04:23:20.027Z,18.80
2019-03-30T04:25:49.713Z,22.40
2019-03-30T04:28:19.484Z,19.80
2019-03-30T04:30:49.172Z,20.80
2019-03-30T04:33:18.884Z,19.37
2019-03-30T04:35:48.649Z,19.23
2019-03-30T04:38:18.417Z,20.23
2019-03-30T04:40:48.179Z,23.03
2019-03-30T04:43:17.881Z,19.93
2019-03-30T04:45:47.562Z,18.73
2019-03-30T04:48:17.347Z,20.40
2019-03-30T04:50:47.050Z,21.00
2019-03-30T04:53:16.778Z,18.37
2019-03-30T04:55:46.499Z,19.73
2019-03-30T04:58:16.229Z,26.03
2019-03-30T05:00:45.964Z,20.17
2019-03-30T05:03:15.667Z,21.40
2019-03-30T05:05:45.479Z,19.43
2019-03-30T05:08:15.189Z,16.43
2019-03-30T05:10:44.869Z,19.50
2019-03-30T05:13:14.655Z,18.07
2019-03-30T05:15:44.370Z,17.80
2019-03-30T05:18:14.083Z,22.97
2019-03-30T05:20:43.764Z,19.43
2019-03-30T05:23:13.471Z,21.30
2019-03-30T05:25:43.152Z,20.80
2019-03-30T05:28:12.931Z,21.80
2019-03-30T05:30:42.603Z,22.00
2019-03-30T05:33:12.333Z,21.17
2019-03-30T05:35:42.103Z,18.90
2019-03-30T05:38:11.947Z,18.60
2019-03-30T05:40:41.707Z,24.43
2019-03-30T05:43:11.499Z,21.20
2019-03-30T05:45:41.175Z,20.50
2019-03-30T05:48:10.886Z,19.57
2019-03-30T05:50:40.647Z,19.77
2019-03-30T05:53:10.367Z,17.60
2019-03-30T05:55:40.051Z,18.43
2019-03-30T05:58:09.828Z,19.50
2019-03-30T06:00:39.670Z,18.43
2019-03-30T06:03:09.391Z,18.60
2019-03-30T06:05:39.216Z,20.43
2019-03-30T06:08:08.970Z,16.87
2019-03-30T06:10:39.114Z,16.00
2019-03-30T06:13:08.993Z,19.43
2019-03-30T06:15:38.710Z,18.80
2019-03-30T06:18:11.231Z,19.00
2019-03-30T06:20:39.927Z,20.20
2019-03-30T06:23:09.675Z,20.80
2019-03-30T06:25:39.383Z,17.70
2019-03-30T06:28:09.207Z,16.80
2019-03-30T06:30:38.916Z,18.07
2019-03-30T06:33:08.670Z,17.37
2019-03-30T06:35:38.475Z,11.90
2019-03-30T06:38:08.303Z,11.97
2019-03-30T06:40:38.008Z,11.50
2019-03-30T06:43:08.176Z,12.17
2019-03-30T06:45:37.974Z,10.57
2019-03-30T06:48:07.764Z,11.53
2019-03-30T06:50:37.499Z,15.27
2019-03-30T06:53:07.222Z,12.57
2019-03-30T06:55:37.002Z,10.60
2019-03-30T06:58:06.787Z,10.47
2019-03-30T07:00:37.114Z,12.07
2019-03-30T07:03:08.191Z,10.27
2019-03-30T07:05:40.873Z,11.87
2019-03-30T07:08:13.411Z,10.57
2019-03-30T07:10:45.519Z,11.10
2019-03-30T07:13:15.687Z,10.57
2019-03-30T07:15:49.410Z,11.20
2019-03-30T07:18:19.423Z,9.70
2019-03-30T07:20:49.366Z,11.63
2019-03-30T07:23:19.131Z,10.23
2019-03-30T07:25:49.062Z,10.50
2019-03-30T07:28:18.858Z,11.37
2019-03-30T07:30:48.714Z,10.90
2019-03-30T07:33:18.534Z,11.13
2019-03-30T07:35:48.255Z,12.23
2019-03-30T07:38:17.939Z,11.60
2019-03-30T07:40:47.654Z,11.20
2019-03-30T07:43:17.339Z,12.60
2019-03-30T07:45:47.047Z,11.33
2019-03-30T07:48:16.878Z,11.23
2019-03-30T07:50:46.586Z,11.40
2019-03-30T07:53:26.349Z,11.60
2019-03-30T07:55:48.774Z,11.60
2019-03-30T07:58:18.531Z,13.13
2019-03-30T08:00:48.287Z,13.83
2019-03-30T08:03:18.023Z,12.20
2019-03-30T08:05:47.742Z,12.13
2019-03-30T08:08:17.454Z,14.97
2019-03-30T08:10:47.227Z,12.90
2019-03-30T08:13:16.936Z,13.30
2019-03-30T08:15:46.722Z,12.73
2019-03-30T08:18:16.540Z,13.27
2019-03-30T08:20:46.243Z,13.70
2019-03-30T08:23:16.106Z,13.53
2019-03-30T08:25:46.038Z,13.87
2019-03-30T08:28:16.090Z,13.93
2019-03-30T08:30:46.310Z,14.20
2019-03-30T08:33:16.127Z,14.93
2019-03-30T08:35:46.010Z,14.67
2019-03-30T08:38:16.837Z,15.53
2019-03-30T08:40:46.723Z,14.70
2019-03-30T08:43:16.577Z,15.63
2019-03-30T08:45:48.875Z,16.63
2019-03-30T08:48:17.820Z,15.13
2019-03-30T08:50:49.106Z,16.33
2019-03-30T08:53:18.844Z,14.17
2019-03-30T08:55:48.759Z,16.67
2019-03-30T08:58:18.491Z,17.23
2019-03-30T09:00:48.174Z,14.20
2019-03-30T09:03:17.982Z,16.07
2019-03-30T09:05:47.820Z,14.83
2019-03-30T09:08:17.612Z,18.00
2019-03-30T09:10:47.463Z,15.17
2019-03-30T09:13:17.259Z,15.53
2019-03-30T09:15:46.972Z,17.83
2019-03-30T09:18:16.770Z,16.33
2019-03-30T09:20:46.611Z,16.83
2019-03-30T09:23:16.396Z,15.80
2019-03-30T09:25:46.169Z,18.53
2019-03-30T09:28:15.923Z,17.60
2019-03-30T09:30:45.702Z,15.10
2019-03-30T09:33:15.386Z,17.40
2019-03-30T09:35:45.342Z,17.80
2019-03-30T09:38:15.121Z,16.20
2019-03-30T09:40:44.946Z,18.77
2019-03-30T09:43:14.718Z,17.13
2019-03-30T09:45:44.427Z,19.43
2019-03-30T09:48:14.274Z,16.00
2019-03-30T09:50:44.172Z,16.30
2019-03-30T09:53:14.199Z,17.83
2019-03-30T09:55:44.022Z,17.93
2019-03-30T09:58:13.758Z,16.37
2019-03-30T10:00:43.857Z,18.27
2019-03-30T10:03:13.794Z,16.87
2019-03-30T10:05:43.775Z,18.10
2019-03-30T10:08:13.879Z,17.70
2019-03-30T10:10:43.693Z,17.20
2019-03-30T10:13:13.451Z,17.20
2019-03-30T10:15:43.171Z,16.87
2019-03-30T10:18:12.862Z,17.93
2019-03-30T10:20:42.738Z,17.13
2019-03-30T10:23:12.422Z,17.33
2019-03-30T10:25:42.131Z,17.90
2019-03-30T10:28:11.935Z,17.17
2019-03-30T10:30:41.729Z,17.03
2019-03-30T10:33:11.495Z,19.13
2019-03-30T10:35:41.299Z,16.67
2019-03-30T10:38:11.067Z,17.93
2019-03-30T10:40:40.835Z,18.87
2019-03-30T10:43:10.669Z,18.13
2019-03-30T10:45:40.389Z,19.10
2019-03-30T10:48:10.246Z,19.70
2019-03-30T10:50:40.058Z,25.00
2019-03-30T10:53:09.823Z,17.30
2019-03-30T10:55:39.612Z,15.87
2019-03-30T10:58:09.303Z,16.50
2019-03-30T11:00:40.749Z,39.73
2019-03-30T11:03:10.504Z,24.30
2019-03-30T11:05:40.216Z,16.93
2019-03-30T11:08:09.979Z,26.40
2019-03-30T11:10:39.699Z,18.33
2019-03-30T11:13:09.577Z,16.87
2019-03-30T11:15:39.387Z,19.63
2019-03-30T11:18:09.250Z,18.10
2019-03-30T11:20:38.951Z,17.87
2019-03-30T11:23:08.726Z,18.70
2019-03-30T11:25:38.543Z,18.00
2019-03-30T11:28:08.322Z,18.00
2019-03-30T11:30:38.041Z,19.60
2019-03-30T11:33:07.726Z,18.23
2019-03-30T11:35:37.439Z,17.83
2019-03-30T11:38:07.207Z,20.17
2019-03-30T11:40:37.759Z,18.20
2019-03-30T11:43:07.526Z,17.57
2019-03-30T11:45:37.304Z,20.23
2019-03-30T11:48:06.994Z,18.60
2019-03-30T11:50:36.774Z,19.67
2019-03-30T11:53:06.607Z,18.53
2019-03-30T11:55:36.559Z,17.13
2019-03-30T11:58:06.247Z,18.00
2019-03-30T12:00:35.966Z,17.37
2019-03-30T12:03:12.170Z,17.05
2019-03-30T12:05:41.977Z,21.13
2019-03-30T12:08:11.666Z,16.50
2019-03-30T12:10:41.491Z,16.60
2019-03-30T12:13:11.365Z,22.57
2019-03-30T12:15:41.329Z,18.63
2019-03-30T12:18:11.117Z,18.80
2019-03-30T12:20:40.939Z,19.00
2019-03-30T12:23:10.736Z,19.40
2019-03-30T12:25:40.522Z,19.70
2019-03-30T12:28:10.306Z,20.57
2019-03-30T12:30:40.019Z,18.83
2019-03-30T12:33:09.703Z,20.33
2019-03-30T12:35:39.443Z,20.57
2019-03-30T12:38:09.128Z,16.70
2019-03-30T12:40:38.911Z,16.70
2019-03-30T12:43:08.726Z,20.33
2019-03-30T12:45:38.548Z,15.23
2019-03-30T12:48:08.233Z,15.40
2019-03-30T12:50:37.939Z,17.07
2019-03-30T12:53:07.742Z,13.93
2019-03-30T12:58:09.020Z,16.90
2019-03-30T13:00:38.835Z,16.90
2019-03-30T13:03:08.631Z,16.03
2019-03-30T13:05:38.339Z,16.03
2019-03-30T13:08:08.027Z,18.40
2019-03-30T13:10:37.820Z,15.63
2019-03-30T13:13:07.580Z,14.87
2019-03-30T13:15:37.294Z,19.00
2019-03-30T13:18:06.982Z,16.33
2019-03-30T13:20:36.694Z,20.03
2019-03-30T13:23:06.463Z,19.63
2019-03-30T13:25:36.310Z,18.13
2019-03-30T13:28:05.991Z,14.93
2019-03-30T13:30:35.747Z,16.10
2019-03-30T13:33:05.531Z,14.23
2019-03-30T13:35:35.290Z,15.47
2019-03-30T13:38:05.099Z,14.57
2019-03-30T13:40:34.869Z,13.97
2019-03-30T13:43:04.587Z,14.83
2019-03-30T13:45:34.419Z,15.43
2019-03-30T13:48:04.206Z,14.00
2019-03-30T13:50:33.894Z,13.43
2019-03-30T13:53:03.706Z,15.60
2019-03-30T13:55:33.388Z,14.33
2019-03-30T13:58:03.255Z,14.97
2019-03-30T14:00:33.133Z,15.20
2019-03-30T14:03:02.999Z,14.60
2019-03-30T14:05:32.867Z,14.83
2019-03-30T14:08:02.671Z,11.67
2019-03-30T14:10:32.430Z,10.07
2019-03-30T14:13:02.135Z,10.57
2019-03-30T14:15:31.819Z,7.87
2019-03-30T14:18:01.604Z,10.07
2019-03-30T14:20:31.355Z,8.80
2019-03-30T14:23:01.232Z,8.40
2019-03-30T14:25:30.979Z,9.90
2019-03-30T14:28:00.759Z,9.30
2019-03-30T14:30:30.467Z,10.77
2019-03-30T14:33:00.248Z,10.67
2019-03-30T14:35:30.230Z,10.53
2019-03-30T14:38:00.066Z,10.60
2019-03-30T14:40:29.739Z,10.50
2019-03-30T14:43:01.582Z,9.20
2019-03-30T14:45:31.312Z,7.57
2019-03-30T14:48:01.183Z,6.60
2019-03-30T14:50:31.014Z,8.13
2019-03-30T14:53:00.863Z,6.77
2019-03-30T14:55:30.643Z,6.70
2019-03-30T14:58:00.447Z,11.53
2019-03-30T15:00:30.197Z,6.57
2019-03-30T15:03:00.122Z,7.37
2019-03-30T15:05:29.904Z,7.03
2019-03-30T15:07:59.659Z,8.20
2019-03-30T15:10:29.347Z,8.63
2019-03-30T15:12:59.212Z,6.97
2019-03-30T15:15:29.093Z,8.63
2019-03-30T15:17:58.846Z,5.10
2019-03-30T15:20:28.715Z,6.83
2019-03-30T15:22:58.494Z,7.03
2019-03-30T15:25:28.303Z,5.77
2019-03-30T15:27:58.079Z,4.53
2019-03-30T15:30:28.767Z,5.97
2019-03-30T15:32:58.622Z,4.47
2019-03-30T15:35:28.497Z,6.43
2019-03-30T15:37:58.227Z,6.37
2019-03-30T15:40:27.994Z,4.97
2019-03-30T15:42:57.873Z,6.77
2019-03-30T15:45:27.620Z,4.70
2019-03-30T15:47:57.419Z,4.60
2019-03-30T15:50:27.308Z,5.53
2019-03-30T15:52:57.105Z,4.67
2019-03-30T15:55:26.885Z,5.27
2019-03-30T15:57:56.667Z,4.53
2019-03-30T16:00:26.415Z,5.57
2019-03-30T16:02:56.215Z,4.67
2019-03-30T16:05:25.962Z,5.23
2019-03-30T16:07:55.800Z,5.00
2019-03-30T16:10:25.487Z,5.10
2019-03-30T16:12:55.838Z,7.33
2019-03-30T16:15:25.631Z,5.13
2019-03-30T16:17:55.379Z,5.10
2019-03-30T16:20:25.078Z,6.10
2019-03-30T16:22:54.758Z,5.27
2019-03-30T16:25:24.536Z,5.77
2019-03-30T16:27:54.207Z,7.17
2019-03-30T16:30:25.474Z,5.50
2019-03-30T16:32:55.634Z,5.37
2019-03-30T16:35:26.183Z,5.53
2019-03-30T16:37:56.002Z,7.87
2019-03-30T16:40:25.815Z,7.40
2019-03-30T16:42:55.619Z,12.87
2019-03-30T16:45:25.353Z,14.23
2019-03-30T16:47:55.024Z,8.30
2019-03-30T16:50:24.763Z,38.10
2019-03-30T16:52:54.452Z,32.83
2019-03-30T16:55:24.183Z,8.40
2019-03-30T16:57:53.932Z,6.97
2019-03-30T17:00:23.739Z,6.07
2019-03-30T17:02:54.719Z,5.92
2019-03-30T17:05:24.534Z,6.20
2019-03-30T17:07:54.302Z,5.73
2019-03-30T17:10:24.094Z,6.50
2019-03-30T17:12:53.851Z,5.90
2019-03-30T17:15:23.609Z,5.53
2019-03-30T17:17:53.291Z,6.60
2019-03-30T17:20:22.998Z,7.43
2019-03-30T17:22:52.666Z,7.60
2019-03-30T17:25:22.694Z,7.67
2019-03-30T17:27:58.516Z,7.50
2019-03-30T17:30:23.808Z,11.27
2019-03-30T17:32:53.729Z,7.53
2019-03-30T17:35:23.460Z,9.30
2019-03-30T17:37:53.223Z,7.43
2019-03-30T17:40:23.264Z,9.90
2019-03-30T17:42:52.943Z,7.50
2019-03-30T17:45:22.728Z,7.37
2019-03-30T17:47:52.524Z,6.63
2019-03-30T17:50:22.268Z,5.47
2019-03-30T17:52:51.982Z,4.53
2019-03-30T17:55:33.154Z,4.43
2019-03-30T17:57:53.293Z,4.37
2019-03-30T18:00:23.043Z,4.47
2019-03-30T18:02:52.828Z,4.90
2019-03-30T18:05:22.591Z,5.00
2019-03-30T18:07:52.380Z,6.90
2019-03-30T18:10:22.154Z,5.57
2019-03-30T18:12:51.945Z,6.67
2019-03-30T18:15:21.746Z,6.60
2019-03-30T18:17:51.455Z,5.53
2019-03-30T18:20:21.130Z,6.83
2019-03-30T18:22:50.911Z,7.83
2019-03-30T18:25:20.643Z,7.30
2019-03-30T18:27:50.391Z,7.60
2019-03-30T18:30:32.911Z,6.43
2019-03-30T18:33:05.013Z,6.70
2019-03-30T18:35:35.195Z,8.37
2019-03-30T18:38:04.926Z,7.13
2019-03-30T18:40:35.173Z,7.27
2019-03-30T18:43:05.279Z,6.93
2019-03-30T18:45:35.150Z,7.50
2019-03-30T18:48:14.944Z,8.43
2019-03-30T18:50:45.543Z,6.17
2019-03-30T18:53:16.519Z,9.00
2019-03-30T18:55:47.627Z,11.23
2019-03-30T18:58:17.362Z,9.67
2019-03-30T19:00:47.041Z,10.73
2019-03-30T19:03:19.831Z,13.00
2019-03-30T19:05:48.164Z,12.23
2019-03-30T19:08:17.947Z,8.73
2019-03-30T19:10:47.767Z,9.17
2019-03-30T19:13:17.587Z,9.17
2019-03-30T19:15:47.263Z,7.30
2019-03-30T19:18:16.959Z,4.57
2019-03-30T19:20:46.645Z,4.97
2019-03-30T19:23:16.535Z,4.73
2019-03-30T19:25:46.390Z,6.77
2019-03-30T19:28:16.151Z,4.53
2019-03-30T19:30:46.407Z,4.93
2019-03-30T19:33:16.116Z,4.87
2019-03-30T19:35:47.562Z,5.20
2019-03-30T19:38:17.352Z,5.03
2019-03-30T19:40:47.018Z,5.63
2019-03-30T19:43:16.734Z,4.30
2019-03-30T19:45:46.606Z,5.70
2019-03-30T19:48:16.315Z,4.63
2019-03-30T19:50:46.071Z,4.03
2019-03-30T19:53:15.886Z,4.90
2019-03-30T19:55:45.588Z,4.53
2019-03-30T19:58:15.313Z,4.93
2019-03-30T20:00:45.087Z,4.00
2019-03-30T20:03:14.915Z,3.80
2019-03-30T20:05:44.811Z,6.03
2019-03-30T20:08:14.542Z,4.60
2019-03-30T20:10:44.475Z,4.70
2019-03-30T20:13:14.248Z,5.47
2019-03-30T20:15:44.008Z,3.93
2019-03-30T20:18:14.813Z,4.93
2019-03-30T20:20:44.586Z,4.70
2019-03-30T20:23:14.611Z,4.60
2019-03-30T20:25:44.977Z,5.43
2019-03-30T20:28:15.030Z,5.50
2019-03-30T20:30:44.808Z,7.37
2019-03-30T20:33:14.616Z,5.03
2019-03-30T20:35:44.430Z,5.97
2019-03-30T20:38:14.191Z,4.87
2019-03-30T20:40:43.974Z,7.20
2019-03-30T20:43:13.724Z,6.60
2019-03-30T20:45:43.506Z,4.23
2019-03-30T20:48:13.282Z,7.00
2019-03-30T20:50:43.173Z,22.90
2019-03-30T20:53:13.036Z,6.10
2019-03-30T20:55:42.759Z,6.07
2019-03-30T20:58:12.528Z,10.73
2019-03-30T21:00:42.227Z,9.03
2019-03-30T21:03:11.993Z,13.10
2019-03-30T21:05:41.928Z,10.93
2019-03-30T21:08:11.610Z,14.77
2019-03-30T21:10:41.393Z,11.83
2019-03-30T21:13:11.175Z,10.43
2019-03-30T21:15:43.201Z,11.80
2019-03-30T21:18:14.186Z,14.50
2019-03-30T21:20:43.975Z,12.40
2019-03-30T21:23:13.735Z,18.30
2019-03-30T21:25:43.439Z,7.00
2019-03-30T21:28:13.111Z,7.37
2019-03-30T21:30:42.922Z,7.13
2019-03-30T21:33:12.703Z,6.67
2019-03-30T21:35:42.380Z,6.10
2019-03-30T21:38:12.075Z,5.20
2019-03-30T21:40:41.789Z,5.57
2019-03-30T21:43:11.491Z,7.80
2019-03-30T21:45:41.241Z,10.00
2019-03-30T21:48:11.160Z,7.10
2019-03-30T21:50:40.891Z,5.90
2019-03-30T21:53:10.665Z,5.50
2019-03-30T21:55:40.371Z,6.70
2019-03-30T21:58:10.154Z,7.23
2019-03-30T22:00:40.387Z,7.47
2019-03-30T22:03:10.099Z,6.27
2019-03-30T22:05:40.272Z,9.17
2019-03-30T22:08:09.967Z,6.07
2019-03-30T22:10:39.751Z,8.90
2019-03-30T22:13:09.475Z,7.50
2019-03-30T22:15:39.147Z,6.97
2019-03-30T22:18:08.853Z,11.97
2019-03-30T22:20:38.534Z,7.53
2019-03-30T22:23:08.244Z,9.97
2019-03-30T22:25:37.978Z,9.50
2019-03-30T22:28:07.729Z,7.07
2019-03-30T22:30:37.511Z,9.53
2019-03-30T22:33:07.215Z,9.70
2019-03-30T22:35:36.973Z,9.30
2019-03-30T22:38:06.819Z,8.43
2019-03-30T22:40:36.506Z,11.03
2019-03-30T22:43:06.291Z,10.47
2019-03-30T22:45:35.980Z,11.73
2019-03-30T22:48:05.859Z,11.13
2019-03-30T22:50:35.527Z,11.00
2019-03-30T22:53:05.204Z,13.77
2019-03-30T22:55:34.936Z,9.93
2019-03-30T22:58:04.695Z,12.23
2019-03-30T23:00:55.451Z,10.77
2019-03-30T23:03:25.159Z,12.20
2019-03-30T23:05:54.842Z,13.93
2019-03-30T23:08:24.531Z,14.60
2019-03-30T23:10:54.315Z,10.40
2019-03-30T23:13:23.990Z,13.67
2019-03-30T23:15:53.706Z,10.40
2019-03-30T23:18:23.386Z,18.43
2019-03-30T23:20:53.163Z,14.63
2019-03-30T23:23:22.842Z,19.60
2019-03-30T23:25:52.687Z,16.50
2019-03-30T23:28:22.511Z,15.70
2019-03-30T23:30:54.673Z,14.00
2019-03-30T23:33:23.619Z,14.73
2019-03-30T23:35:53.326Z,19.97
2019-03-30T23:38:23.074Z,16.07
2019-03-30T23:40:52.851Z,16.03
2019-03-30T23:43:22.527Z,11.97
2019-03-30T23:45:52.320Z,17.30
2019-03-30T23:48:21.999Z,13.13
2019-03-30T23:50:51.707Z,19.53
2019-03-30T23:53:21.467Z,13.43
2019-03-30T23:55:51.199Z,15.77
2019-03-30T23:58:21.027Z,14.53
